createdAt,value
2023-06-27T00:00:35.382Z,30.29
2023-06-27T00:01:35.419Z,30.23
2023-06-27T00:02:35.421Z,30.25
2023-06-27T00:03:35.528Z,30.27
2023-06-27T00:04:35.499Z,30.27
2023-06-27T00:05:35.485Z,30.30
2023-06-27T00:06:35.538Z,30.25
2023-06-27T00:07:36.366Z,30.24
2023-06-27T00:08:35.574Z,30.27
2023-06-27T00:09:35.576Z,30.25
2023-06-27T00:10:35.650Z,30.24
2023-06-27T00:11:35.645Z,30.24
2023-06-27T00:12:35.689Z,30.26
2023-06-27T00:13:35.684Z,30.23
2023-06-27T00:14:35.707Z,30.23
2023-06-27T00:15:35.729Z,30.27
2023-06-27T00:16:35.784Z,30.28
2023-06-27T00:17:35.861Z,30.30
2023-06-27T00:18:35.943Z,30.31
2023-06-27T00:19:35.901Z,30.35
2023-06-27T00:20:35.897Z,30.32
2023-06-27T00:21:35.924Z,30.29
2023-06-27T00:22:35.962Z,30.32
2023-06-27T00:23:35.966Z,30.36
2023-06-27T00:24:36.006Z,30.41
2023-06-27T00:25:36.048Z,30.36
2023-06-27T00:26:36.074Z,30.38
2023-06-27T00:27:36.101Z,30.42
2023-06-27T00:28:36.111Z,30.45
2023-06-27T00:29:36.210Z,30.38
2023-06-27T00:30:36.179Z,30.44
2023-06-27T00:31:36.191Z,30.46
2023-06-27T00:32:36.276Z,30.45
2023-06-27T00:33:36.267Z,30.48
2023-06-27T00:34:36.287Z,30.40
2023-06-27T00:35:36.285Z,30.52
2023-06-27T00:36:36.328Z,30.48
2023-06-27T00:37:36.339Z,30.45
2023-06-27T00:38:36.381Z,30.52
2023-06-27T00:39:36.363Z,30.51
2023-06-27T00:40:36.522Z,30.55
2023-06-27T00:41:36.455Z,30.48
2023-06-27T00:42:36.452Z,30.52
2023-06-27T00:43:36.493Z,30.56
2023-06-27T00:44:36.507Z,30.56
2023-06-27T00:45:36.534Z,30.61
2023-06-27T00:46:36.559Z,30.58
2023-06-27T00:47:36.629Z,30.56
2023-06-27T00:48:36.600Z,30.61
2023-06-27T00:49:36.655Z,30.61
2023-06-27T00:50:36.655Z,30.62
2023-06-27T00:51:36.700Z,30.62
2023-06-27T00:52:36.715Z,30.62
2023-06-27T00:53:36.772Z,30.63
2023-06-27T00:54:36.782Z,30.63
2023-06-27T00:55:36.884Z,30.65
2023-06-27T00:56:36.826Z,30.66
2023-06-27T00:57:36.870Z,30.68
2023-06-27T00:58:36.872Z,30.65
2023-06-27T00:59:36.880Z,30.65
2023-06-27T01:00:36.909Z,30.67
2023-06-27T01:01:36.969Z,30.66
2023-06-27T01:02:37.062Z,30.71
2023-06-27T01:03:37.060Z,30.70
2023-06-27T01:04:37.027Z,30.73
2023-06-27T01:05:37.162Z,30.73
2023-06-27T01:06:37.082Z,30.69
2023-06-27T01:07:37.120Z,30.74
2023-06-27T01:08:37.181Z,30.76
2023-06-27T01:09:37.178Z,30.76
2023-06-27T01:10:37.260Z,30.76
2023-06-27T01:11:37.231Z,30.76
2023-06-27T01:12:37.240Z,30.79
2023-06-27T01:13:37.261Z,30.76
2023-06-27T01:14:37.268Z,30.80
2023-06-27T01:15:37.592Z,30.80
2023-06-27T01:16:37.354Z,30.77
2023-06-27T01:17:37.440Z,30.76
2023-06-27T01:18:37.429Z,30.77
2023-06-27T01:19:37.472Z,30.77
2023-06-27T01:20:37.453Z,30.79
2023-06-27T01:21:37.569Z,30.79
2023-06-27T01:22:37.490Z,30.76
2023-06-27T01:23:37.530Z,30.80
2023-06-27T01:24:37.557Z,30.82
2023-06-27T01:25:37.654Z,30.83
2023-06-27T01:26:37.617Z,30.82
2023-06-27T01:27:37.630Z,30.86
2023-06-27T01:28:37.733Z,30.85
2023-06-27T01:29:37.664Z,30.82
2023-06-27T01:30:37.728Z,30.89
2023-06-27T01:31:37.776Z,30.87
2023-06-27T01:32:37.753Z,30.85
2023-06-27T01:33:37.801Z,30.86
2023-06-27T01:34:37.845Z,30.89
2023-06-27T01:35:38.093Z,30.89
2023-06-27T01:36:38.111Z,30.89
2023-06-27T01:37:37.977Z,30.86
2023-06-27T01:38:37.933Z,30.93
2023-06-27T01:39:37.971Z,30.91
2023-06-27T01:40:37.987Z,30.91
2023-06-27T01:41:38.015Z,30.93
2023-06-27T01:42:38.022Z,30.94
2023-06-27T01:43:38.028Z,30.94
2023-06-27T01:44:38.068Z,30.97
2023-06-27T01:45:38.369Z,30.94
2023-06-27T01:46:38.131Z,30.93
2023-06-27T01:47:38.209Z,30.94
2023-06-27T01:48:38.139Z,30.91
2023-06-27T01:49:38.183Z,30.93
2023-06-27T01:50:38.211Z,30.93
2023-06-27T01:51:38.237Z,30.94
2023-06-27T01:52:38.244Z,30.97
2023-06-27T01:53:38.292Z,31.03
2023-06-27T01:54:38.311Z,31.02
2023-06-27T01:55:38.667Z,30.97
2023-06-27T01:56:38.316Z,31.02
2023-06-27T01:57:38.371Z,31.00
2023-06-27T01:58:38.365Z,31.03
2023-06-27T01:59:38.393Z,30.99
2023-06-27T02:00:38.398Z,31.01
2023-06-27T02:01:38.490Z,30.96
2023-06-27T02:02:38.545Z,30.94
2023-06-27T02:03:38.545Z,31.00
2023-06-27T02:04:38.531Z,30.97
2023-06-27T02:05:38.879Z,31.00
2023-06-27T02:06:38.587Z,30.97
2023-06-27T02:07:38.597Z,31.04
2023-06-27T02:08:38.637Z,31.05
2023-06-27T02:09:38.647Z,31.10
2023-06-27T02:10:38.637Z,31.08
2023-06-27T02:11:38.709Z,31.04
2023-06-27T02:12:38.692Z,31.05
2023-06-27T02:13:38.749Z,31.04
2023-06-27T02:14:38.780Z,31.10
2023-06-27T02:15:38.964Z,31.08
2023-06-27T02:16:38.808Z,31.02
2023-06-27T02:17:38.892Z,31.05
2023-06-27T02:18:38.873Z,31.08
2023-06-27T02:19:38.897Z,31.07
2023-06-27T02:20:38.936Z,31.05
2023-06-27T02:21:38.938Z,31.07
2023-06-27T02:22:38.967Z,31.05
2023-06-27T02:23:39.034Z,31.08
2023-06-27T02:24:39.068Z,31.16
2023-06-27T02:25:39.445Z,31.10
2023-06-27T02:26:39.101Z,31.10
2023-06-27T02:27:39.116Z,31.11
2023-06-27T02:28:39.186Z,31.14
2023-06-27T02:29:39.207Z,31.16
2023-06-27T02:30:39.431Z,31.14
2023-06-27T02:31:39.266Z,31.16
2023-06-27T02:32:39.344Z,31.18
2023-06-27T02:33:39.300Z,31.18
2023-06-27T02:34:39.352Z,31.18
2023-06-27T02:35:39.681Z,31.21
2023-06-27T02:36:39.410Z,31.24
2023-06-27T02:37:39.439Z,31.22
2023-06-27T02:38:39.421Z,31.23
2023-06-27T02:39:39.488Z,31.24
2023-06-27T02:40:39.501Z,31.27
2023-06-27T02:41:39.497Z,31.21
2023-06-27T02:42:39.508Z,31.24
2023-06-27T02:43:39.579Z,31.22
2023-06-27T02:44:39.607Z,31.27
2023-06-27T02:45:39.850Z,31.26
2023-06-27T02:46:39.646Z,31.18
2023-06-27T02:47:39.711Z,31.26
2023-06-27T02:48:39.680Z,31.21
2023-06-27T02:49:39.722Z,31.21
2023-06-27T02:50:39.729Z,31.22
2023-06-27T02:51:39.786Z,31.26
2023-06-27T02:52:39.795Z,31.21
2023-06-27T02:53:39.898Z,31.29
2023-06-27T02:54:39.902Z,31.24
2023-06-27T02:55:40.213Z,31.22
2023-06-27T02:56:39.927Z,31.29
2023-06-27T02:57:39.960Z,31.26
2023-06-27T02:58:39.978Z,31.27
2023-06-27T02:59:40.005Z,31.31
2023-06-27T03:00:40.034Z,31.30
2023-06-27T03:01:40.091Z,31.35
2023-06-27T03:02:40.245Z,31.31
2023-06-27T03:03:40.187Z,31.31
2023-06-27T03:04:40.299Z,31.34
2023-06-27T03:05:40.442Z,31.34
2023-06-27T03:06:40.217Z,31.31
2023-06-27T03:07:40.241Z,31.28
2023-06-27T03:08:40.284Z,31.34
2023-06-27T03:09:40.331Z,31.31
2023-06-27T03:10:40.332Z,31.30
2023-06-27T03:11:40.356Z,31.37
2023-06-27T03:12:40.373Z,31.38
2023-06-27T03:13:40.412Z,31.34
2023-06-27T03:14:40.445Z,31.34
2023-06-27T03:15:40.652Z,31.43
2023-06-27T03:16:40.508Z,31.37
2023-06-27T03:17:42.060Z,31.35
2023-06-27T03:18:40.545Z,31.38
2023-06-27T03:19:45.172Z,31.40
2023-06-27T03:20:41.591Z,31.38
2023-06-27T03:21:40.569Z,31.38
2023-06-27T03:22:40.573Z,31.32
2023-06-27T03:23:40.546Z,31.35
2023-06-27T03:24:40.546Z,31.37
2023-06-27T03:25:40.736Z,31.31
2023-06-27T03:26:40.529Z,31.32
2023-06-27T03:27:40.551Z,31.34
2023-06-27T03:28:40.533Z,31.31
2023-06-27T03:29:40.483Z,31.33
2023-06-27T03:30:40.546Z,31.31
2023-06-27T03:31:40.540Z,31.26
2023-06-27T03:32:40.561Z,31.30
2023-06-27T03:33:40.471Z,31.27
2023-06-27T03:34:40.499Z,31.28
2023-06-27T03:35:40.952Z,31.24
2023-06-27T03:36:40.625Z,31.26
2023-06-27T03:37:40.625Z,31.21
2023-06-27T03:38:40.654Z,31.22
2023-06-27T03:39:40.680Z,31.22
2023-06-27T03:40:40.701Z,31.24
2023-06-27T03:41:40.742Z,31.24
2023-06-27T03:42:40.763Z,31.24
2023-06-27T03:43:40.830Z,31.19
2023-06-27T03:44:40.822Z,31.17
2023-06-27T03:45:41.203Z,31.17
2023-06-27T03:46:40.883Z,31.18
2023-06-27T03:47:40.992Z,31.15
2023-06-27T03:48:40.931Z,31.16
2023-06-27T03:49:40.958Z,31.11
2023-06-27T03:50:41.003Z,31.08
2023-06-27T03:51:41.026Z,31.12
2023-06-27T03:52:41.028Z,31.12
2023-06-27T03:53:41.060Z,31.18
2023-06-27T03:54:41.080Z,31.14
2023-06-27T03:55:41.340Z,31.17
2023-06-27T03:56:41.164Z,31.16
2023-06-27T03:57:41.175Z,31.20
2023-06-27T03:58:41.174Z,31.20
2023-06-27T03:59:41.228Z,31.17
2023-06-27T04:00:41.256Z,31.17
2023-06-27T04:01:41.276Z,31.18
2023-06-27T04:02:41.365Z,31.20
2023-06-27T04:03:41.460Z,31.17
2023-06-27T04:04:41.580Z,31.16
2023-06-27T04:05:41.628Z,31.20
2023-06-27T04:06:41.376Z,31.21
2023-06-27T04:07:41.435Z,31.17
2023-06-27T04:08:41.446Z,31.24
2023-06-27T04:09:41.451Z,31.21
2023-06-27T04:10:41.505Z,31.17
2023-06-27T04:11:41.506Z,31.10
2023-06-27T04:12:41.548Z,31.14
2023-06-27T04:13:41.549Z,31.10
2023-06-27T04:14:41.582Z,31.10
2023-06-27T04:15:42.065Z,31.05
2023-06-27T04:16:41.696Z,31.05
2023-06-27T04:17:41.767Z,31.04
2023-06-27T04:18:41.696Z,31.04
2023-06-27T04:19:41.713Z,30.98
2023-06-27T04:20:41.744Z,30.96
2023-06-27T04:21:41.784Z,30.96
2023-06-27T04:22:41.777Z,30.91
2023-06-27T04:23:41.827Z,30.91
2023-06-27T04:24:41.835Z,30.91
2023-06-27T04:25:42.175Z,30.90
2023-06-27T04:26:41.917Z,30.94
2023-06-27T04:27:41.920Z,30.94
2023-06-27T04:28:41.953Z,30.89
2023-06-27T04:29:41.972Z,30.87
2023-06-27T04:30:42.046Z,30.87
2023-06-27T04:31:42.101Z,30.87
2023-06-27T04:32:42.100Z,30.81
2023-06-27T04:33:42.130Z,30.79
2023-06-27T04:34:42.131Z,30.80
2023-06-27T04:35:42.456Z,30.73
2023-06-27T04:36:42.364Z,30.73
2023-06-27T04:37:42.213Z,30.70
2023-06-27T04:38:42.223Z,30.74
2023-06-27T04:39:42.286Z,30.70
2023-06-27T04:40:42.273Z,30.63
2023-06-27T04:41:42.381Z,30.59
2023-06-27T04:42:42.327Z,30.67
2023-06-27T04:43:42.363Z,30.60
2023-06-27T04:44:42.390Z,30.60
2023-06-27T04:45:42.684Z,30.62
2023-06-27T04:46:42.473Z,30.63
2023-06-27T04:47:42.505Z,30.56
2023-06-27T04:48:42.513Z,30.56
2023-06-27T04:49:42.514Z,30.59
2023-06-27T04:50:42.553Z,30.54
2023-06-27T04:51:42.921Z,30.53
2023-06-27T04:52:42.717Z,30.53
2023-06-27T04:53:42.670Z,30.50
2023-06-27T04:54:42.650Z,30.52
2023-06-27T04:55:42.939Z,30.50
2023-06-27T04:56:42.720Z,30.47
2023-06-27T04:57:42.760Z,30.46
2023-06-27T04:58:42.765Z,30.42
2023-06-27T04:59:42.829Z,30.40
2023-06-27T05:00:42.897Z,30.36
2023-06-27T05:01:50.416Z,30.42
2023-06-27T05:02:49.763Z,30.35
2023-06-27T05:03:43.917Z,30.33
2023-06-27T05:04:42.909Z,30.32
2023-06-27T05:05:43.161Z,30.28
2023-06-27T05:06:42.915Z,30.25
2023-06-27T05:07:42.938Z,30.25
2023-06-27T05:08:42.938Z,30.25
2023-06-27T05:09:42.937Z,30.31
2023-06-27T05:10:42.884Z,30.26
2023-06-27T05:11:42.909Z,30.22
2023-06-27T05:12:42.886Z,30.19
2023-06-27T05:13:42.905Z,30.18
2023-06-27T05:14:42.898Z,30.24
2023-06-27T05:15:43.369Z,30.14
2023-06-27T05:16:42.974Z,30.18
2023-06-27T05:17:43.013Z,30.14
2023-06-27T05:18:43.029Z,30.09
2023-06-27T05:19:43.049Z,30.18
2023-06-27T05:20:43.048Z,30.11
2023-06-27T05:21:43.130Z,30.08
2023-06-27T05:22:43.131Z,30.12
2023-06-27T05:23:43.154Z,30.04
2023-06-27T05:24:43.179Z,30.03
2023-06-27T05:25:43.366Z,30.02
2023-06-27T05:26:43.209Z,29.96
2023-06-27T05:27:43.265Z,29.97
2023-06-27T05:28:43.285Z,30.05
2023-06-27T05:29:43.281Z,29.97
2023-06-27T05:30:43.349Z,29.88
2023-06-27T05:31:43.398Z,29.86
2023-06-27T05:32:43.509Z,29.84
2023-06-27T05:33:43.412Z,29.86
2023-06-27T05:34:43.444Z,29.77
2023-06-27T05:35:43.646Z,29.58
2023-06-27T05:36:43.979Z,29.50
2023-06-27T05:37:43.985Z,29.39
2023-06-27T05:38:43.551Z,29.37
2023-06-27T05:39:43.595Z,29.20
2023-06-27T05:40:43.689Z,29.58
2023-06-27T05:41:43.716Z,29.66
2023-06-27T05:42:43.988Z,29.78
2023-06-27T05:43:43.772Z,29.63
2023-06-27T05:44:43.788Z,28.60
2023-06-27T05:45:44.004Z,28.89
2023-06-27T05:46:51.528Z,28.54
2023-06-27T05:47:43.868Z,28.73
2023-06-27T05:48:43.855Z,28.29
2023-06-27T05:49:43.898Z,28.11
2023-06-27T05:50:43.873Z,28.31
2023-06-27T05:51:44.055Z,28.74
2023-06-27T05:52:43.901Z,28.94
2023-06-27T05:53:43.892Z,29.12
2023-06-27T05:54:44.514Z,29.17
2023-06-27T05:55:43.900Z,28.63
2023-06-27T05:56:43.883Z,28.41
2023-06-27T05:57:44.018Z,28.19
2023-06-27T05:58:43.859Z,28.13
2023-06-27T05:59:43.875Z,28.33
2023-06-27T06:00:43.897Z,28.44
2023-06-27T06:01:43.941Z,27.94
2023-06-27T06:02:44.172Z,28.12
2023-06-27T06:03:46.059Z,27.85
2023-06-27T06:04:44.072Z,28.08
2023-06-27T06:05:44.093Z,28.03
2023-06-27T06:06:44.176Z,27.99
2023-06-27T06:07:44.156Z,27.97
2023-06-27T06:08:44.174Z,27.75
2023-06-27T06:09:44.317Z,28.47
2023-06-27T06:10:44.322Z,28.27
2023-06-27T06:11:44.323Z,28.36
2023-06-27T06:12:44.380Z,28.34
2023-06-27T06:13:44.394Z,28.47
2023-06-27T06:14:44.564Z,28.35
2023-06-27T06:15:44.528Z,28.29
2023-06-27T06:16:44.692Z,28.28
2023-06-27T06:17:45.092Z,28.34
2023-06-27T06:18:44.727Z,28.30
2023-06-27T06:19:44.788Z,28.34
2023-06-27T06:20:44.803Z,28.23
2023-06-27T06:21:45.043Z,28.24
2023-06-27T06:22:45.021Z,28.22
2023-06-27T06:23:44.928Z,28.23
2023-06-27T06:24:44.981Z,28.14
2023-06-27T06:25:45.144Z,28.17
2023-06-27T06:26:45.170Z,28.14
2023-06-27T06:27:45.124Z,28.20
2023-06-27T06:28:45.161Z,28.14
2023-06-27T06:29:45.207Z,28.11
2023-06-27T06:30:45.251Z,28.06
2023-06-27T06:31:45.321Z,28.10
2023-06-27T06:32:45.365Z,28.03
2023-06-27T06:33:45.480Z,27.99
2023-06-27T06:34:45.466Z,28.01
2023-06-27T06:35:45.475Z,27.92
2023-06-27T06:36:45.521Z,27.95
2023-06-27T06:37:46.081Z,28.00
2023-06-27T06:38:45.678Z,27.95
2023-06-27T06:39:45.678Z,27.93
2023-06-27T06:40:45.762Z,27.95
2023-06-27T06:41:45.782Z,27.90
2023-06-27T06:42:46.037Z,27.93
2023-06-27T06:43:45.905Z,27.94
2023-06-27T06:44:45.853Z,27.86
2023-06-27T06:45:45.950Z,27.84
2023-06-27T06:46:46.052Z,27.92
2023-06-27T06:47:46.113Z,27.86
2023-06-27T06:48:46.015Z,27.85
2023-06-27T06:49:46.059Z,27.83
2023-06-27T06:50:46.096Z,27.82
2023-06-27T06:51:46.136Z,27.79
2023-06-27T06:52:46.188Z,27.79
2023-06-27T06:53:46.203Z,27.75
2023-06-27T06:54:46.207Z,27.78
2023-06-27T06:55:46.265Z,27.82
2023-06-27T06:56:46.315Z,27.78
2023-06-27T06:57:46.353Z,27.75
2023-06-27T06:58:46.526Z,27.78
2023-06-27T06:59:46.396Z,27.78
2023-06-27T07:00:46.441Z,27.82
2023-06-27T07:01:46.543Z,27.80
2023-06-27T07:02:46.594Z,27.87
2023-06-27T07:03:46.571Z,27.82
2023-06-27T07:04:46.601Z,27.87
2023-06-27T07:05:46.648Z,27.82
2023-06-27T07:06:46.719Z,27.82
2023-06-27T07:07:46.662Z,27.85
2023-06-27T07:08:46.708Z,27.86
2023-06-27T07:09:46.707Z,27.83
2023-06-27T07:10:46.752Z,27.90
2023-06-27T07:11:46.802Z,27.87
2023-06-27T07:12:46.829Z,27.83
2023-06-27T07:13:46.881Z,27.84
2023-06-27T07:14:46.890Z,27.89
2023-06-27T07:15:46.913Z,27.87
2023-06-27T07:16:46.934Z,27.90
2023-06-27T07:17:47.031Z,27.88
2023-06-27T07:18:46.998Z,27.94
2023-06-27T07:19:47.054Z,27.97
2023-06-27T07:20:47.103Z,27.96
2023-06-27T07:21:47.133Z,27.99
2023-06-27T07:22:47.144Z,27.98
2023-06-27T07:23:47.596Z,28.02
2023-06-27T07:24:47.187Z,27.99
2023-06-27T07:25:47.234Z,27.97
2023-06-27T07:26:47.262Z,28.00
2023-06-27T07:27:47.332Z,28.00
2023-06-27T07:28:47.576Z,28.00
2023-06-27T07:29:47.370Z,28.00
2023-06-27T07:30:47.479Z,28.04
2023-06-27T07:31:47.411Z,28.05
2023-06-27T07:32:47.470Z,28.00
2023-06-27T07:33:47.600Z,28.08
2023-06-27T07:34:47.470Z,28.05
2023-06-27T07:35:47.515Z,28.03
2023-06-27T07:36:47.518Z,28.05
2023-06-27T07:37:47.516Z,28.05
2023-06-27T07:38:47.595Z,28.12
2023-06-27T07:39:47.533Z,28.01
2023-06-27T07:40:47.574Z,28.02
2023-06-27T07:41:47.534Z,28.05
2023-06-27T07:42:47.589Z,28.08
2023-06-27T07:43:48.090Z,28.11
2023-06-27T07:44:47.606Z,28.09
2023-06-27T07:45:47.634Z,28.08
2023-06-27T07:46:47.611Z,28.09
2023-06-27T07:47:47.671Z,28.07
2023-06-27T07:48:48.132Z,28.12
2023-06-27T07:49:47.687Z,28.08
2023-06-27T07:50:47.674Z,28.10
2023-06-27T07:51:47.690Z,28.14
2023-06-27T07:52:47.709Z,28.11
2023-06-27T07:53:48.096Z,28.11
2023-06-27T07:54:47.740Z,28.12
2023-06-27T07:55:48.680Z,28.15
2023-06-27T07:56:47.759Z,28.13
2023-06-27T07:57:47.694Z,28.13
2023-06-27T07:58:48.068Z,28.14
2023-06-27T07:59:47.651Z,28.11
2023-06-27T08:00:47.600Z,28.14
2023-06-27T08:01:47.647Z,28.07
2023-06-27T08:02:47.645Z,28.10
2023-06-27T08:03:47.699Z,28.15
2023-06-27T08:04:47.619Z,28.15
2023-06-27T08:05:47.594Z,28.20
2023-06-27T08:06:47.587Z,28.18
2023-06-27T08:07:47.599Z,28.15
2023-06-27T08:08:47.583Z,28.23
2023-06-27T08:09:47.540Z,28.18
2023-06-27T08:10:47.555Z,28.23
2023-06-27T08:11:47.508Z,28.23
2023-06-27T08:13:42.091Z,28.24
2023-06-27T08:14:41.949Z,28.23
2023-06-27T08:15:41.949Z,28.20
2023-06-27T08:16:41.935Z,28.22
2023-06-27T08:17:42.011Z,28.26
2023-06-27T08:18:41.938Z,28.22
2023-06-27T08:19:41.965Z,28.19
2023-06-27T08:20:42.272Z,28.22
2023-06-27T08:21:41.972Z,28.20
2023-06-27T08:22:41.988Z,28.25
2023-06-27T08:23:42.813Z,28.25
2023-06-27T08:24:41.961Z,28.19
2023-06-27T08:25:42.287Z,28.23
2023-06-27T08:26:41.963Z,28.22
2023-06-27T08:27:42.037Z,28.22
2023-06-27T08:28:41.992Z,28.25
2023-06-27T08:29:41.992Z,28.22
2023-06-27T08:30:42.180Z,28.22
2023-06-27T08:31:41.974Z,28.26
2023-06-27T08:32:42.004Z,28.29
2023-06-27T08:33:41.996Z,28.26
2023-06-27T08:34:42.113Z,28.29
2023-06-27T08:35:41.980Z,28.26
2023-06-27T08:36:41.967Z,28.31
2023-06-27T08:37:41.978Z,28.25
2023-06-27T08:38:41.978Z,28.29
2023-06-27T08:39:42.659Z,28.28
2023-06-27T08:40:42.898Z,28.32
2023-06-27T08:41:41.961Z,28.32
2023-06-27T08:42:41.987Z,28.31
2023-06-27T08:43:41.952Z,28.31
2023-06-27T08:44:41.944Z,28.34
2023-06-27T08:45:41.963Z,28.34
2023-06-27T08:46:41.960Z,28.29
2023-06-27T08:47:42.010Z,28.26
2023-06-27T08:48:41.946Z,28.28
2023-06-27T08:49:42.798Z,28.33
2023-06-27T08:50:42.232Z,28.28
2023-06-27T08:51:42.112Z,28.32
2023-06-27T08:52:42.009Z,28.31
2023-06-27T08:53:42.001Z,28.31
2023-06-27T08:54:42.249Z,28.29
2023-06-27T08:55:42.048Z,28.35
2023-06-27T08:56:42.056Z,28.29
2023-06-27T08:57:42.112Z,28.34
2023-06-27T08:58:42.133Z,28.36
2023-06-27T08:59:43.946Z,28.32
2023-06-27T09:00:42.382Z,28.29
2023-06-27T09:01:42.302Z,28.29
2023-06-27T09:02:42.528Z,28.30
2023-06-27T09:03:42.414Z,28.28
2023-06-27T09:04:42.518Z,28.37
2023-06-27T09:05:42.421Z,28.35
2023-06-27T09:06:42.497Z,28.32
2023-06-27T09:07:42.503Z,28.35
2023-06-27T09:08:42.570Z,28.37
2023-06-27T09:09:42.666Z,28.40
2023-06-27T09:10:42.833Z,28.38
2023-06-27T09:11:42.679Z,28.38
2023-06-27T09:12:42.644Z,28.41
2023-06-27T09:13:42.679Z,28.41
2023-06-27T09:14:42.762Z,28.38
2023-06-27T09:15:43.910Z,28.45
2023-06-27T09:16:42.880Z,28.42
2023-06-27T09:17:42.795Z,28.45
2023-06-27T09:18:42.799Z,28.45
2023-06-27T09:19:42.828Z,28.43
2023-06-27T09:20:43.069Z,28.40
2023-06-27T09:21:42.861Z,28.41
2023-06-27T09:22:44.095Z,28.41
2023-06-27T09:23:43.627Z,28.38
2023-06-27T09:24:43.151Z,28.38
2023-06-27T09:25:43.144Z,28.44
2023-06-27T09:26:43.202Z,28.47
2023-06-27T09:27:43.188Z,28.44
2023-06-27T09:28:43.221Z,28.41
2023-06-27T09:29:43.270Z,28.44
2023-06-27T09:30:43.400Z,28.45
2023-06-27T09:31:43.467Z,28.43
2023-06-27T09:32:43.489Z,28.49
2023-06-27T09:33:45.777Z,28.47
2023-06-27T09:34:43.652Z,28.45
2023-06-27T09:36:00.325Z,28.46
2023-06-27T09:38:46.635Z,28.46
2023-06-27T09:39:44.684Z,28.50
2023-06-27T09:40:43.473Z,28.49
2023-06-27T09:41:43.447Z,28.50
2023-06-27T09:42:43.480Z,28.60
2023-06-27T09:43:43.459Z,28.57
2023-06-27T09:44:43.695Z,28.57
2023-06-27T09:45:43.609Z,28.56
2023-06-27T09:46:43.486Z,28.57
2023-06-27T09:47:45.046Z,28.59
2023-06-27T09:48:44.157Z,28.52
2023-06-27T09:49:45.107Z,28.46
2023-06-27T09:50:44.175Z,28.46
2023-06-27T09:51:43.659Z,28.47
2023-06-27T09:52:43.680Z,28.55
2023-06-27T09:53:43.809Z,28.47
2023-06-27T09:54:44.173Z,28.47
2023-06-27T09:55:43.972Z,28.45
2023-06-27T09:56:43.888Z,28.52
2023-06-27T09:57:43.980Z,28.49
2023-06-27T09:58:44.024Z,28.53
2023-06-27T09:59:44.686Z,28.50
2023-06-27T10:00:44.096Z,28.49
2023-06-27T10:01:45.139Z,28.50
2023-06-27T10:02:44.245Z,28.50
2023-06-27T10:03:44.259Z,28.49
2023-06-27T10:04:44.648Z,28.55
2023-06-27T10:05:54.407Z,28.52
2023-06-27T10:06:45.516Z,28.47
2023-06-27T10:07:44.335Z,28.55
2023-06-27T10:08:44.368Z,28.56
2023-06-27T10:09:44.367Z,28.58
2023-06-27T10:10:44.649Z,28.53
2023-06-27T10:11:44.322Z,28.58
2023-06-27T10:12:44.324Z,28.52
2023-06-27T10:13:44.314Z,28.50
2023-06-27T10:14:44.326Z,28.53
2023-06-27T10:15:44.692Z,28.58
2023-06-27T10:16:44.466Z,28.53
2023-06-27T10:17:44.569Z,28.58
2023-06-27T10:18:52.061Z,28.52
2023-06-27T10:19:44.583Z,28.55
2023-06-27T10:20:44.579Z,28.55
2023-06-27T10:21:44.566Z,28.61
2023-06-27T10:22:44.611Z,28.59
2023-06-27T10:23:44.604Z,28.55
2023-06-27T10:24:44.671Z,28.56
2023-06-27T10:25:44.893Z,28.58
2023-06-27T10:26:44.683Z,28.55
2023-06-27T10:27:44.576Z,28.55
2023-06-27T10:28:44.585Z,28.54
2023-06-27T10:29:44.587Z,28.57
2023-06-27T10:30:44.629Z,28.58
2023-06-27T10:31:44.604Z,28.60
2023-06-27T10:32:44.636Z,28.58
2023-06-27T10:33:44.608Z,28.57
2023-06-27T10:34:44.539Z,28.57
2023-06-27T10:35:44.672Z,28.62
2023-06-27T10:36:44.563Z,28.61
2023-06-27T10:37:44.578Z,28.59
2023-06-27T10:38:44.582Z,28.60
2023-06-27T10:39:44.724Z,28.61
2023-06-27T10:40:45.174Z,28.61
2023-06-27T10:41:44.772Z,28.57
2023-06-27T10:42:44.844Z,28.56
2023-06-27T10:43:44.874Z,28.57
2023-06-27T10:44:44.922Z,28.57
2023-06-27T10:45:45.186Z,28.56
2023-06-27T10:46:45.056Z,28.53
2023-06-27T10:47:45.215Z,28.53
2023-06-27T10:48:47.344Z,28.57
2023-06-27T10:49:45.201Z,28.63
2023-06-27T10:50:45.454Z,29.26
2023-06-27T10:51:45.318Z,29.16
2023-06-27T10:52:45.372Z,29.23
2023-06-27T10:53:45.392Z,29.14
2023-06-27T10:54:45.489Z,29.18
2023-06-27T10:55:45.521Z,29.04
2023-06-27T10:56:45.608Z,28.96
2023-06-27T10:57:45.674Z,29.02
2023-06-27T10:58:45.768Z,29.00
2023-06-27T10:59:45.685Z,28.97
2023-06-27T11:00:46.985Z,28.94
2023-06-27T11:01:45.799Z,28.88
2023-06-27T11:02:45.957Z,28.88
2023-06-27T11:03:46.019Z,28.85
2023-06-27T11:04:46.015Z,28.84
2023-06-27T11:05:46.016Z,28.81
2023-06-27T11:06:46.097Z,28.84
2023-06-27T11:07:46.098Z,28.82
2023-06-27T11:08:46.187Z,28.80
2023-06-27T11:09:46.237Z,28.87
2023-06-27T11:10:46.667Z,28.82
2023-06-27T11:11:46.311Z,28.83
2023-06-27T11:12:46.418Z,28.82
2023-06-27T11:13:46.447Z,28.90
2023-06-27T11:14:46.556Z,28.89
2023-06-27T11:15:46.548Z,28.88
2023-06-27T11:16:46.705Z,28.83
2023-06-27T11:17:46.714Z,28.86
2023-06-27T11:18:46.700Z,28.88
2023-06-27T11:19:46.775Z,28.80
2023-06-27T11:20:47.213Z,28.86
2023-06-27T11:21:46.861Z,28.91
2023-06-27T11:22:46.929Z,28.89
2023-06-27T11:23:46.985Z,28.90
2023-06-27T11:24:47.028Z,28.92
2023-06-27T11:25:47.148Z,28.85
2023-06-27T11:26:47.131Z,28.88
2023-06-27T11:27:47.174Z,28.85
2023-06-27T11:28:47.281Z,28.86
2023-06-27T11:29:47.376Z,28.85
2023-06-27T11:30:48.232Z,28.86
2023-06-27T11:31:47.441Z,28.85
2023-06-27T11:32:47.512Z,28.83
2023-06-27T11:33:47.488Z,28.90
2023-06-27T11:34:47.550Z,28.86
2023-06-27T11:35:47.732Z,28.85
2023-06-27T11:36:47.684Z,28.96
2023-06-27T11:37:47.728Z,28.88
2023-06-27T11:38:47.781Z,28.89
2023-06-27T11:39:47.875Z,28.99
2023-06-27T11:40:47.956Z,28.90
2023-06-27T11:41:47.963Z,28.89
2023-06-27T11:42:47.996Z,28.86
2023-06-27T11:43:48.028Z,28.95
2023-06-27T11:44:48.093Z,28.88
2023-06-27T11:45:48.191Z,28.85
2023-06-27T11:46:48.156Z,28.85
2023-06-27T11:47:48.245Z,28.89
2023-06-27T11:48:48.291Z,28.99
2023-06-27T11:49:48.306Z,28.92
2023-06-27T11:50:48.372Z,28.93
2023-06-27T11:51:48.441Z,28.88
2023-06-27T11:52:48.472Z,28.90
2023-06-27T11:53:48.512Z,28.85
2023-06-27T11:54:48.550Z,28.89
2023-06-27T11:55:51.885Z,28.86
2023-06-27T11:56:49.647Z,28.91
2023-06-27T11:57:48.629Z,28.94
2023-06-27T11:58:48.601Z,28.95
2023-06-27T11:59:48.561Z,28.88
2023-06-27T12:00:48.576Z,28.89
2023-06-27T12:01:48.615Z,28.88
2023-06-27T12:02:48.585Z,28.89
2023-06-27T12:03:48.624Z,28.89
2023-06-27T12:04:48.588Z,28.89
2023-06-27T12:05:48.585Z,28.88
2023-06-27T12:06:48.611Z,28.88
2023-06-27T12:07:48.654Z,28.88
2023-06-27T12:08:48.769Z,28.94
2023-06-27T12:09:48.743Z,28.94
2023-06-27T12:10:48.771Z,28.92
2023-06-27T12:11:48.873Z,28.91
2023-06-27T12:12:48.988Z,28.96
2023-06-27T12:13:48.959Z,28.94
2023-06-27T12:14:48.969Z,28.95
2023-06-27T12:15:49.010Z,28.92
2023-06-27T12:16:49.078Z,28.94
2023-06-27T12:17:49.118Z,28.98
2023-06-27T12:18:49.168Z,28.97
2023-06-27T12:19:49.242Z,28.94
2023-06-27T12:20:49.246Z,28.95
2023-06-27T12:21:49.345Z,28.94
2023-06-27T12:22:49.378Z,28.97
2023-06-27T12:23:49.459Z,28.91
2023-06-27T12:24:49.486Z,28.94
2023-06-27T12:25:49.535Z,28.89
2023-06-27T12:26:49.600Z,28.92
2023-06-27T12:27:49.623Z,28.94
2023-06-27T12:28:49.672Z,28.94
2023-06-27T12:29:49.719Z,28.90
2023-06-27T12:30:49.796Z,28.95
2023-06-27T12:31:49.836Z,28.92
2023-06-27T12:32:49.880Z,28.92
2023-06-27T12:33:49.901Z,28.88
2023-06-27T12:34:50.063Z,28.91
2023-06-27T12:35:49.984Z,28.93
2023-06-27T12:36:50.054Z,28.93
2023-06-27T12:37:50.228Z,28.90
2023-06-27T12:38:50.164Z,28.91
2023-06-27T12:39:50.163Z,28.88
2023-06-27T12:40:50.231Z,28.95
2023-06-27T12:41:50.284Z,28.93
2023-06-27T12:42:50.325Z,28.88
2023-06-27T12:43:50.349Z,28.90
2023-06-27T12:44:50.442Z,28.94
2023-06-27T12:45:50.453Z,28.88
2023-06-27T12:46:50.491Z,28.97
2023-06-27T12:47:50.599Z,28.91
2023-06-27T12:48:50.594Z,28.94
2023-06-27T12:49:50.641Z,28.94
2023-06-27T12:50:50.653Z,28.97
2023-06-27T12:51:50.738Z,28.91
2023-06-27T12:52:50.780Z,28.91
2023-06-27T12:53:50.826Z,28.91
2023-06-27T12:54:50.896Z,28.91
2023-06-27T12:55:50.927Z,28.90